Time;durP1;ratioP1;P1;durP2;ratioP2;P2;SDS_P1;SDS_P2;PMS_P1;PMS_P2;Temp;Humidity;BMP_temperature;BMP_pressure;BME280_temperature;BME280_humidity;BME280_pressure;Samples;Min_cycle;Max_cycle;Signal;HPM_P1;HPM_P2
2023/11/21 00:01:34;;;;;;;;;13.33;12.00;;;;;;;;4887879;29;45556;-80
2023/11/21 00:04:01;;;;;;;;;18.33;16.67;;;;;;;;4887541;29;45944;-80
2023/11/21 00:06:26;;;;;;;;;17.67;16.00;;;;;;;;4904722;29;45423;-80
2023/11/21 00:08:51;;;;;;;;;17.33;16.33;;;;;;;;4887658;29;45695;-81
2023/11/21 00:11:16;;;;;;;;;15.33;14.33;;;;;;;;4904660;29;45400;-80
2023/11/21 00:13:41;;;;;;;;;15.00;14.67;;;;;;;;4904620;29;45375;-80
2023/11/21 00:16:07;;;;;;;;;18.33;15.00;;;;;;;;4904589;29;45369;-81
2023/11/21 00:18:32;;;;;;;;;10.67;9.67;;;;;;;;4904524;29;45314;-80
2023/11/21 00:20:58;;;;;;;;;14.75;14.00;;;;;;;;4905067;29;45326;-80
2023/11/21 00:23:24;;;;;;;;;19.67;18.33;;;;;;;;4887151;29;46166;-80
2023/11/21 00:25:49;;;;;;;;;16.00;14.50;;;;;;;;4904534;29;45462;-79
2023/11/21 00:28:15;;;;;;;;;13.00;12.67;;;;;;;;4886768;29;45635;-80
2023/11/21 00:30:40;;;;;;;;;13.00;13.00;;;;;;;;4903791;29;45375;-80
2023/11/21 00:33:05;;;;;;;;;17.00;15.67;;;;;;;;4904516;29;45349;-80
2023/11/21 00:35:30;;;;;;;;;17.00;15.33;;;;;;;;4904203;29;45467;-81
2023/11/21 00:37:55;;;;;;;;;14.00;11.67;;;;;;;;4904400;29;45348;-80
2023/11/21 00:40:21;;;;;;;;;15.00;15.00;;;;;;;;4904336;29;45755;-80
2023/11/21 00:42:46;;;;;;;;;16.33;14.67;;;;;;;;4903667;29;45375;-80
2023/11/21 00:45:12;;;;;;;;;16.33;16.33;;;;;;;;4904020;29;46068;-80
2023/11/21 00:47:38;;;;;;;;;15.33;15.33;;;;;;;;4904061;29;45256;-81
2023/11/21 00:50:05;;;;;;;;;16.00;14.00;;;;;;;;4886738;29;45263;-80
2023/11/21 00:52:31;;;;;;;;;16.33;14.00;;;;;;;;4886439;29;46083;-80
2023/11/21 00:54:56;;;;;;;;;15.33;15.00;;;;;;;;4902798;29;46206;-79
2023/11/21 00:57:21;;;;;;;;;15.75;14.50;;;;;;;;4894055;28;45808;-81
2023/11/21 00:59:46;;;;;;;;;15.33;15.33;;;;;;;;4923231;28;45307;-80
2023/11/21 01:02:11;;;;;;;;;14.67;12.67;;;;;;;;4905700;28;46945;-80
2023/11/21 01:04:37;;;;;;;;;15.67;15.33;;;;;;;;4922985;28;45321;-80
2023/11/21 01:07:02;;;;;;;;;11.67;11.67;;;;;;;;4922843;28;45360;-80
2023/11/21 01:09:28;;;;;;;;;12.33;11.00;;;;;;;;4922912;28;45571;-81
2023/11/21 01:11:53;;;;;;;;;9.00;9.00;;;;;;;;4905604;28;46953;-81
2023/11/21 01:14:19;;;;;;;;;13.33;12.33;;;;;;;;4905673;28;47126;-80
2023/11/21 01:16:44;;;;;;;;;16.00;14.33;;;;;;;;4905023;28;45563;-80
2023/11/21 01:19:09;;;;;;;;;14.75;12.75;;;;;;;;4922922;28;45291;-81
2023/11/21 01:21:34;;;;;;;;;15.33;13.33;;;;;;;;4922650;28;45338;-81
2023/11/21 01:23:59;;;;;;;;;14.00;13.33;;;;;;;;4922724;28;46164;-81
2023/11/21 01:26:24;;;;;;;;;15.33;15.00;;;;;;;;4905609;28;45381;-81
2023/11/21 01:28:49;;;;;;;;;13.67;11.67;;;;;;;;4905405;28;45425;-81
2023/11/21 01:31:15;;;;;;;;;13.33;12.00;;;;;;;;4922448;28;45340;-81
2023/11/21 01:33:40;;;;;;;;;14.33;14.00;;;;;;;;4905063;28;47325;-81
2023/11/21 01:36:06;;;;;;;;;14.00;14.00;;;;;;;;4922579;28;45742;-80
2023/11/21 01:38:32;;;;;;;;;14.67;14.67;;;;;;;;4922687;28;45323;-81
2023/11/21 01:40:57;;;;;;;;;14.00;12.67;;;;;;;;4922581;28;45264;-80
2023/11/21 01:43:22;;;;;;;;;14.00;14.00;;;;;;;;4922191;28;45662;-80
2023/11/21 01:45:47;;;;;;;;;11.67;11.67;;;;;;;;4905136;28;45360;-80
2023/11/21 01:48:13;;;;;;;;;16.67;16.33;;;;;;;;4922572;28;45330;-80
2023/11/21 01:50:38;;;;;;;;;10.67;10.00;;;;;;;;4904885;28;46303;-81
2023/11/21 01:53:06;;;;;;;;;13.67;13.00;;;;;;;;4922182;28;45229;-81
2023/11/21 01:55:32;;;;;;;;;11.00;10.00;;;;;;;;4921442;28;45367;-80
2023/11/21 01:57:59;;;;;;;;;10.00;10.00;;;;;;;;4909460;28;45355;-81
2023/11/21 02:00:25;;;;;;;;;11.67;11.00;;;;;;;;4902910;29;45342;-81
2023/11/21 02:02:50;;;;;;;;;13.33;10.67;;;;;;;;4903036;29;45384;-81
2023/11/21 02:05:19;;;;;;;;;13.00;11.33;;;;;;;;4902988;29;45402;-80
2023/11/21 02:07:44;;;;;;;;;17.00;15.33;;;;;;;;4886110;29;45316;-80
2023/11/21 02:10:14;;;;;;;;;9.33;9.00;;;;;;;;4902562;29;45463;-80
2023/11/21 02:12:39;;;;;;;;;11.67;10.00;;;;;;;;4903024;29;45406;-80
2023/11/21 02:15:09;;;;;;;;;14.00;14.00;;;;;;;;4902928;29;45619;-80
2023/11/21 02:17:34;;;;;;;;;12.00;10.00;;;;;;;;4885784;29;45397;-80
2023/11/21 02:19:59;;;;;;;;;14.67;13.67;;;;;;;;4885517;29;45320;-80
2023/11/21 02:22:27;;;;;;;;;15.67;14.33;;;;;;;;4902816;29;45337;-81
2023/11/21 02:24:52;;;;;;;;;14.00;14.00;;;;;;;;4885832;29;45371;-81
2023/11/21 02:27:21;;;;;;;;;13.33;13.33;;;;;;;;4902945;29;45315;-80
2023/11/21 02:29:47;;;;;;;;;13.33;11.67;;;;;;;;4902425;29;45349;-80
2023/11/21 02:32:12;;;;;;;;;14.33;13.33;;;;;;;;4902345;29;46030;-80
2023/11/21 02:34:39;;;;;;;;;11.50;10.00;;;;;;;;4901792;29;45434;-81
2023/11/21 02:37:05;;;;;;;;;16.33;12.00;;;;;;;;4885487;29;45277;-80
2023/11/21 02:39:31;;;;;;;;;15.33;14.00;;;;;;;;4902580;29;45317;-81
2023/11/21 02:41:56;;;;;;;;;13.00;12.33;;;;;;;;4902517;29;45916;-81
2023/11/21 02:44:21;;;;;;;;;16.00;12.67;;;;;;;;4902704;29;45372;-80
2023/11/21 02:46:47;;;;;;;;;10.00;10.00;;;;;;;;4902717;29;45316;-80
2023/11/21 02:49:12;;;;;;;;;13.00;13.00;;;;;;;;4902471;29;45301;-81
2023/11/21 02:51:38;;;;;;;;;11.50;11.25;;;;;;;;4902451;29;45444;-81
2023/11/21 02:54:06;;;;;;;;;12.00;12.00;;;;;;;;4902385;29;45317;-81
2023/11/21 02:56:32;;;;;;;;;14.00;12.33;;;;;;;;4886146;28;45358;-81
2023/11/21 02:58:59;;;;;;;;;13.67;13.67;;;;;;;;4921277;28;45334;-81
2023/11/21 03:01:24;;;;;;;;;12.67;12.33;;;;;;;;4903783;28;48345;-80
2023/11/21 03:03:51;;;;;;;;;9.67;9.00;;;;;;;;4921224;28;45198;-80
2023/11/21 03:06:16;;;;;;;;;14.00;12.00;;;;;;;;4923239;28;45387;-81
2023/11/21 03:08:42;;;;;;;;;13.33;12.00;;;;;;;;4924511;28;45289;-80
2023/11/21 03:11:08;;;;;;;;;9.67;9.67;;;;;;;;4924442;28;46158;-80
2023/11/21 03:13:33;;;;;;;;;15.00;13.33;;;;;;;;4924655;28;45330;-81
2023/11/21 03:15:58;;;;;;;;;15.00;12.67;;;;;;;;4907241;28;45512;-80
2023/11/21 03:18:23;;;;;;;;;15.00;13.00;;;;;;;;4907300;28;46883;-80
2023/11/21 03:20:48;;;;;;;;;14.00;13.75;;;;;;;;4924699;28;46287;-80
2023/11/21 03:23:13;;;;;;;;;13.50;12.00;;;;;;;;4924623;28;45379;-80
2023/11/21 03:25:39;;;;;;;;;14.00;14.00;;;;;;;;4924673;28;45387;-80
2023/11/21 03:28:04;;;;;;;;;16.33;13.33;;;;;;;;4924359;28;45592;-81
2023/11/21 03:30:30;;;;;;;;;13.67;13.67;;;;;;;;4906782;28;47278;-81
2023/11/21 03:32:55;;;;;;;;;12.33;11.00;;;;;;;;4924290;28;45339;-80
2023/11/21 03:35:21;;;;;;;;;12.75;11.25;;;;;;;;4924508;28;45343;-81
2023/11/21 03:37:46;;;;;;;;;16.00;13.33;;;;;;;;4907047;28;47163;-80
2023/11/21 03:40:12;;;;;;;;;14.00;13.00;;;;;;;;4924096;28;45253;-81
2023/11/21 03:42:37;;;;;;;;;14.67;14.67;;;;;;;;4924038;28;45231;-81
2023/11/21 03:45:02;;;;;;;;;12.33;12.00;;;;;;;;4924340;28;45473;-80
2023/11/21 03:47:28;;;;;;;;;11.33;10.67;;;;;;;;4906507;28;46152;-80
2023/11/21 03:49:53;;;;;;;;;15.67;14.67;;;;;;;;4923723;28;45156;-80
2023/11/21 03:52:18;;;;;;;;;13.00;13.00;;;;;;;;4924168;28;45354;-81
2023/11/21 03:54:43;;;;;;;;;17.33;17.33;;;;;;;;4924284;28;45219;-81
2023/11/21 03:57:10;;;;;;;;;13.67;13.67;;;;;;;;4917899;28;45281;-80
2023/11/21 03:59:35;;;;;;;;;15.00;11.67;;;;;;;;4904736;29;46257;-80
2023/11/21 04:02:01;;;;;;;;;17.67;14.33;;;;;;;;4904628;29;45315;-81
2023/11/21 04:04:26;;;;;;;;;16.25;14.75;;;;;;;;4905062;29;45478;-80
2023/11/21 04:06:54;;;;;;;;;17.67;14.00;;;;;;;;4904650;29;45396;-80
2023/11/21 04:09:19;;;;;;;;;17.33;15.67;;;;;;;;4903939;29;46446;-80
2023/11/21 04:11:45;;;;;;;;;14.67;14.67;;;;;;;;4904296;29;45226;-80
2023/11/21 04:14:10;;;;;;;;;13.00;11.67;;;;;;;;4904825;29;45303;-81
2023/11/21 04:16:35;;;;;;;;;13.00;13.00;;;;;;;;4902791;29;45516;-81
2023/11/21 04:19:01;;;;;;;;;17.67;14.33;;;;;;;;4903278;29;46500;-80
2023/11/21 04:21:26;;;;;;;;;15.00;13.33;;;;;;;;4904087;29;45233;-81
2023/11/21 04:23:51;;;;;;;;;14.33;14.33;;;;;;;;4903602;29;45277;-81
2023/11/21 04:26:16;;;;;;;;;12.75;11.75;;;;;;;;4904448;29;45455;-80
2023/11/21 04:28:41;;;;;;;;;15.67;14.33;;;;;;;;4904188;29;45209;-80
2023/11/21 04:31:07;;;;;;;;;11.00;10.00;;;;;;;;4887259;29;45858;-81
2023/11/21 04:33:32;;;;;;;;;13.67;12.33;;;;;;;;4904432;29;45157;-81
2023/11/21 04:35:57;;;;;;;;;19.00;17.00;;;;;;;;4904004;29;45641;-81
2023/11/21 04:38:22;;;;;;;;;15.00;15.00;;;;;;;;4904405;29;45313;-80
2023/11/21 04:40:47;;;;;;;;;12.33;12.00;;;;;;;;4887384;29;45298;-80
2023/11/21 04:43:12;;;;;;;;;14.67;13.33;;;;;;;;4903432;29;45591;-81
2023/11/21 04:45:38;;;;;;;;;14.67;13.67;;;;;;;;4904175;29;45220;-81
2023/11/21 04:48:03;;;;;;;;;10.00;9.67;;;;;;;;4904077;28;45341;-80
2023/11/21 04:50:29;;;;;;;;;4.33;4.00;;;;;;;;4904339;29;45233;-80
2023/11/21 04:52:54;;;;;;;;;13.67;12.33;;;;;;;;4905006;29;45568;-80
2023/11/21 04:55:19;;;;;;;;;13.33;13.00;;;;;;;;4906041;29;45404;-80
2023/11/21 04:57:45;;;;;;;;;13.00;12.67;;;;;;;;4898194;28;47332;-81
2023/11/21 05:00:10;;;;;;;;;13.33;13.33;;;;;;;;4923928;28;45244;-80
2023/11/21 05:02:35;;;;;;;;;14.67;14.67;;;;;;;;4924384;28;45270;-80
2023/11/21 05:05:01;;;;;;;;;16.50;15.50;;;;;;;;4924286;28;45390;-80
2023/11/21 05:07:28;;;;;;;;;16.00;16.00;;;;;;;;4922999;28;45362;-80
2023/11/21 05:09:54;;;;;;;;;16.00;14.67;;;;;;;;4922764;28;45362;-80
2023/11/21 05:12:19;;;;;;;;;14.00;14.00;;;;;;;;4922854;28;45467;-79
2023/11/21 05:14:44;;;;;;;;;14.00;13.00;;;;;;;;4922876;28;45393;-80
2023/11/21 05:17:09;;;;;;;;;13.33;12.00;;;;;;;;4922492;28;45490;-79
2023/11/21 05:19:35;;;;;;;;;12.33;12.33;;;;;;;;4922813;28;45442;-80
2023/11/21 05:22:00;;;;;;;;;13.00;12.00;;;;;;;;4922840;28;45510;-80
2023/11/21 05:24:25;;;;;;;;;14.00;12.00;;;;;;;;4905220;28;46052;-80
2023/11/21 05:26:51;;;;;;;;;12.67;12.67;;;;;;;;4922543;28;46031;-80
2023/11/21 05:29:16;;;;;;;;;10.00;10.00;;;;;;;;4921616;28;45398;-80
2023/11/21 05:31:41;;;;;;;;;13.33;13.33;;;;;;;;4922436;28;45327;-80
2023/11/21 05:34:06;;;;;;;;;11.25;10.50;;;;;;;;4905236;28;45908;-80
2023/11/21 05:36:31;;;;;;;;;16.33;14.00;;;;;;;;4905426;28;48228;-80
2023/11/21 05:38:56;;;;;;;;;16.33;14.67;;;;;;;;4922618;28;45318;-81
2023/11/21 05:41:22;;;;;;;;;13.00;13.00;;;;;;;;4922901;28;45244;-80
2023/11/21 05:43:47;;;;;;;;;16.67;15.33;;;;;;;;4905210;28;46464;-79
2023/11/21 05:46:13;;;;;;;;;14.00;13.67;;;;;;;;4904990;28;46469;-78
2023/11/21 05:48:42;;;;;;;;;21.33;17.67;;;;;;;;4922361;28;45225;-78
2023/11/21 05:51:08;;;;;;;;;14.33;13.00;;;;;;;;4904900;28;45317;-76
2023/11/21 05:53:33;;;;;;;;;15.00;15.00;;;;;;;;4904941;28;46703;-76
2023/11/21 05:55:58;;;;;;;;;14.67;13.67;;;;;;;;4922042;28;45395;-76
2023/11/21 05:58:24;;;;;;;;;17.00;15.00;;;;;;;;4905636;28;45451;-77
2023/11/21 06:00:49;;;;;;;;;14.33;12.67;;;;;;;;4885904;29;45317;-77
2023/11/21 06:03:14;;;;;;;;;16.00;16.00;;;;;;;;4885875;29;46368;-77
2023/11/21 06:05:39;;;;;;;;;13.00;13.00;;;;;;;;4902983;29;45346;-79
2023/11/21 06:08:04;;;;;;;;;15.67;15.67;;;;;;;;4902591;29;45395;-79
2023/11/21 06:10:29;;;;;;;;;15.33;13.33;;;;;;;;4901563;29;45244;-77
2023/11/21 06:12:54;;;;;;;;;15.67;15.67;;;;;;;;4874644;29;45993;-77
2023/11/21 06:15:22;;;;;;;;;14.33;14.33;;;;;;;;4866062;29;48213;-78
2023/11/21 06:17:51;;;;;;;;;39.33;36.00;;;;;;;;4866537;29;45760;-78
2023/11/21 06:20:18;;;;;;;;;15.33;14.33;;;;;;;;4883670;29;45363;-78
2023/11/21 06:22:44;;;;;;;;;16.33;16.00;;;;;;;;4883947;29;45530;-78
2023/11/21 06:25:09;;;;;;;;;17.00;15.00;;;;;;;;4883677;29;46374;-78
2023/11/21 06:27:37;;;;;;;;;13.33;12.00;;;;;;;;4883725;29;45435;-78
2023/11/21 06:30:02;;;;;;;;;14.67;13.33;;;;;;;;4883807;29;45329;-78
2023/11/21 06:32:29;;;;;;;;;18.33;15.67;;;;;;;;4883324;29;45526;-80
2023/11/21 06:34:55;;;;;;;;;17.00;16.00;;;;;;;;4866585;29;47003;-79
2023/11/21 06:37:22;;;;;;;;;19.67;17.33;;;;;;;;4883568;29;45586;-79
2023/11/21 06:39:48;;;;;;;;;16.00;12.00;;;;;;;;4883783;29;45301;-78
2023/11/21 06:42:14;;;;;;;;;22.33;16.67;;;;;;;;4886530;29;45625;-78
2023/11/21 06:44:41;;;;;;;;;15.33;15.00;;;;;;;;4886947;29;46036;-82
2023/11/21 06:47:06;;;;;;;;;17.00;15.67;;;;;;;;4869847;29;45297;-79
2023/11/21 06:49:31;;;;;;;;;12.33;12.00;;;;;;;;4887056;29;45240;-78
2023/11/21 06:51:57;;;;;;;;;18.00;15.50;;;;;;;;4886752;29;45328;-77
2023/11/21 06:54:22;;;;;;;;;20.33;16.00;;;;;;;;4886794;29;45973;-78
2023/11/21 06:56:47;;;;;;;;;22.00;18.33;;;;;;;;4892613;28;45361;-78
2023/11/21 06:59:13;;;;;;;;;23.67;21.67;;;;;;;;4924890;28;45320;-78
2023/11/21 07:01:41;;;;;;;;;18.00;18.00;;;;;;;;4922977;28;45393;-79
2023/11/21 07:04:06;;;;;;;;;20.00;18.00;;;;;;;;4904823;28;47998;-79
2023/11/21 07:06:32;;;;;;;;;19.67;18.33;;;;;;;;4916032;28;45422;-78
2023/11/21 07:08:58;;;;;;;;;19.00;17.67;;;;;;;;4905395;28;45495;-78
2023/11/21 07:11:23;;;;;;;;;20.33;18.00;;;;;;;;4905156;29;45500;-79
2023/11/21 07:13:48;;;;;;;;;20.00;18.33;;;;;;;;4905036;28;45326;-78
2023/11/21 07:16:15;;;;;;;;;19.33;17.33;;;;;;;;4905122;29;45328;-79
2023/11/21 07:18:40;;;;;;;;;19.67;18.33;;;;;;;;4888111;29;45288;-79
2023/11/21 07:21:05;;;;;;;;;18.67;17.33;;;;;;;;4904802;29;45352;-79
2023/11/21 07:23:30;;;;;;;;;16.67;16.67;;;;;;;;4904915;28;46025;-83
2023/11/21 07:25:56;;;;;;;;;20.00;18.25;;;;;;;;4905278;29;45493;-80
2023/11/21 07:28:21;;;;;;;;;20.67;18.33;;;;;;;;4904442;28;45209;-78
2023/11/21 07:30:46;;;;;;;;;22.00;20.00;;;;;;;;4905061;29;45497;-82
2023/11/21 07:33:12;;;;;;;;;19.00;18.67;;;;;;;;4888023;29;47514;-78
2023/11/21 07:35:37;;;;;;;;;23.67;19.67;;;;;;;;4904671;29;45328;-78
2023/11/21 07:38:03;;;;;;;;;18.50;17.75;;;;;;;;4905439;29;45203;-78
2023/11/21 07:40:28;;;;;;;;;22.00;19.33;;;;;;;;4905029;29;45434;-79
2023/11/21 07:42:54;;;;;;;;;15.67;15.67;;;;;;;;4905075;29;46302;-78
2023/11/21 07:45:20;;;;;;;;;20.00;16.67;;;;;;;;4904883;29;45325;-79
2023/11/21 07:47:45;;;;;;;;;16.00;16.00;;;;;;;;4905123;29;45326;-79
2023/11/21 07:50:10;;;;;;;;;19.33;18.33;;;;;;;;4904560;29;45673;-80
2023/11/21 07:52:36;;;;;;;;;15.33;15.33;;;;;;;;4904144;29;46578;-79
2023/11/21 07:55:01;;;;;;;;;25.67;24.33;;;;;;;;4904958;29;45439;-78
2023/11/21 07:57:26;;;;;;;;;21.67;21.33;;;;;;;;4904776;29;45256;-79
2023/11/21 07:59:53;;;;;;;;;21.00;17.00;;;;;;;;4904850;29;45485;-79
2023/11/21 08:02:19;;;;;;;;;20.67;19.33;;;;;;;;4904670;29;46188;-79
2023/11/21 08:04:44;;;;;;;;;17.67;16.67;;;;;;;;4904512;29;45305;-80
2023/11/21 08:07:10;;;;;;;;;19.33;19.00;;;;;;;;4904945;29;45296;-79
2023/11/21 08:09:36;;;;;;;;;18.00;16.00;;;;;;;;4887613;29;47225;-79
2023/11/21 08:12:02;;;;;;;;;16.00;14.33;;;;;;;;4904711;29;45732;-79
2023/11/21 08:14:27;;;;;;;;;18.33;16.67;;;;;;;;4887643;29;45321;-79
2023/11/21 08:16:57;;;;;;;;;14.00;12.33;;;;;;;;4904325;29;45210;-80
2023/11/21 08:19:23;;;;;;;;;16.67;16.67;;;;;;;;4887423;29;46106;-76
2023/11/21 08:21:48;;;;;;;;;17.00;14.00;;;;;;;;4904727;29;45250;-76
2023/11/21 08:24:13;;;;;;;;;11.00;11.00;;;;;;;;4904754;29;45314;-78
2023/11/21 08:26:39;;;;;;;;;16.33;13.00;;;;;;;;4905043;29;45263;-78
2023/11/21 08:29:06;;;;;;;;;17.67;16.33;;;;;;;;4902621;29;45372;-80
2023/11/21 08:31:31;;;;;;;;;16.33;13.33;;;;;;;;4891500;28;45383;-78
2023/11/21 08:33:57;;;;;;;;;17.00;13.00;;;;;;;;4885703;29;45428;-78
2023/11/21 08:36:25;;;;;;;;;15.33;15.33;;;;;;;;4903693;29;45307;-79
2023/11/21 08:38:52;;;;;;;;;13.00;13.00;;;;;;;;4900618;29;45563;-79
2023/11/21 08:41:17;;;;;;;;;12.67;12.00;;;;;;;;4902617;29;45415;-78
2023/11/21 08:43:42;;;;;;;;;14.67;12.33;;;;;;;;4885972;29;45937;-80
2023/11/21 08:46:10;;;;;;;;;16.33;14.67;;;;;;;;4902531;29;45434;-79
2023/11/21 08:48:36;;;;;;;;;15.33;14.00;;;;;;;;4886006;29;45757;-79
2023/11/21 08:51:01;;;;;;;;;14.67;13.33;;;;;;;;4902008;29;46376;-76
2023/11/21 08:53:26;;;;;;;;;11.67;11.67;;;;;;;;4886167;29;45473;-78
2023/11/21 08:55:53;;;;;;;;;11.00;11.00;;;;;;;;4886139;29;45657;-78
2023/11/21 08:58:18;;;;;;;;;12.67;12.67;;;;;;;;4915706;28;45458;-78
2023/11/21 09:00:46;;;;;;;;;14.00;13.33;;;;;;;;4918784;28;45295;-78
2023/11/21 09:03:11;;;;;;;;;14.33;14.00;;;;;;;;4902447;28;45343;-79
2023/11/21 09:05:39;;;;;;;;;12.00;11.33;;;;;;;;4902994;28;45475;-78
2023/11/21 09:08:05;;;;;;;;;12.33;11.33;;;;;;;;4919739;28;45423;-77
2023/11/21 09:10:30;;;;;;;;;11.33;11.33;;;;;;;;4919900;28;45394;-77
2023/11/21 09:12:56;;;;;;;;;15.00;14.00;;;;;;;;4921080;28;45591;-79
2023/11/21 09:15:21;;;;;;;;;12.00;12.00;;;;;;;;4897258;29;45317;-79
2023/11/21 09:17:47;;;;;;;;;16.67;12.33;;;;;;;;4902931;29;45553;-79
2023/11/21 09:20:12;;;;;;;;;12.67;11.33;;;;;;;;4901645;29;46305;-79
2023/11/21 09:22:37;;;;;;;;;14.33;14.00;;;;;;;;4900361;29;45614;-78
2023/11/21 09:25:05;;;;;;;;;15.33;12.33;;;;;;;;4890855;29;45352;-84
2023/11/21 09:27:30;;;;;;;;;13.00;11.67;;;;;;;;4900256;29;46034;-80
2023/11/21 09:29:55;;;;;;;;;11.00;11.00;;;;;;;;4901809;29;45570;-79
2023/11/21 09:32:21;;;;;;;;;10.33;10.33;;;;;;;;4902622;29;45292;-79
2023/11/21 09:34:46;;;;;;;;;15.67;14.33;;;;;;;;4901711;29;45399;-78
2023/11/21 09:37:11;;;;;;;;;12.00;10.67;;;;;;;;4902849;29;45371;-79
2023/11/21 09:39:39;;;;;;;;;13.00;11.67;;;;;;;;4902879;29;45268;-78
2023/11/21 09:42:08;;;;;;;;;15.67;15.67;;;;;;;;4902554;28;45359;-83
2023/11/21 09:44:42;;;;;;;;;16.00;14.00;;;;;;;;4902646;29;45352;-81
2023/11/21 09:47:10;;;;;;;;;16.00;15.00;;;;;;;;4902128;29;45385;-85
2023/11/21 09:49:37;;;;;;;;;11.00;9.33;;;;;;;;4902314;29;45354;-81
2023/11/21 09:52:05;;;;;;;;;13.00;13.00;;;;;;;;4902353;28;45346;-78
2023/11/21 09:54:31;;;;;;;;;13.33;13.00;;;;;;;;4902543;28;45343;-79
2023/11/21 09:56:57;;;;;;;;;13.67;12.33;;;;;;;;4889669;28;46146;-77
2023/11/21 09:59:23;;;;;;;;;11.67;11.67;;;;;;;;4911985;28;45291;-78
2023/11/21 10:01:50;;;;;;;;;14.00;14.00;;;;;;;;4902832;29;45349;-77
2023/11/21 10:04:16;;;;;;;;;12.67;11.33;;;;;;;;4903041;29;45320;-77
2023/11/21 10:06:41;;;;;;;;;11.67;11.00;;;;;;;;4902940;29;45290;-78
2023/11/21 10:09:11;;;;;;;;;11.00;9.67;;;;;;;;4901577;29;47189;-79
2023/11/21 10:11:39;;;;;;;;;12.33;11.33;;;;;;;;4902753;29;45453;-78
2023/11/21 10:14:04;;;;;;;;;13.00;11.00;;;;;;;;4902919;29;45217;-77
2023/11/21 10:16:29;;;;;;;;;8.67;8.67;;;;;;;;4902099;29;45638;-78
2023/11/21 10:18:55;;;;;;;;;11.00;10.00;;;;;;;;4902772;29;45150;-79
2023/11/21 10:21:21;;;;;;;;;9.00;8.67;;;;;;;;4902777;29;45318;-78
2023/11/21 10:23:46;;;;;;;;;8.33;8.33;;;;;;;;4902843;29;45577;-78
2023/11/21 10:26:16;;;;;;;;;10.67;10.00;;;;;;;;4902990;29;45288;-80
2023/11/21 10:28:41;;;;;;;;;10.67;9.67;;;;;;;;4902956;29;45826;-82
2023/11/21 10:31:07;;;;;;;;;7.67;6.67;;;;;;;;4902606;29;45263;-81
2023/11/21 10:33:32;;;;;;;;;10.33;10.33;;;;;;;;4902550;29;45444;-79
2023/11/21 10:35:57;;;;;;;;;12.67;11.33;;;;;;;;4891906;29;45529;-79
2023/11/21 10:38:24;;;;;;;;;9.67;8.33;;;;;;;;4901660;29;45242;-81
2023/11/21 10:40:49;;;;;;;;;8.33;8.33;;;;;;;;4899447;29;45527;-81
2023/11/21 10:43:15;;;;;;;;;10.00;10.00;;;;;;;;4890937;29;45463;-82
2023/11/21 10:45:40;;;;;;;;;7.33;7.00;;;;;;;;4898658;29;45450;-82
2023/11/21 10:48:07;;;;;;;;;7.67;7.67;;;;;;;;4901725;29;46188;-81
2023/11/21 10:50:34;;;;;;;;;5.33;5.33;;;;;;;;4900386;29;45372;-79
2023/11/21 10:53:01;;;;;;;;;8.50;6.50;;;;;;;;4884383;29;45381;-82
2023/11/21 10:55:26;;;;;;;;;8.33;7.00;;;;;;;;4902312;29;45356;-87
2023/11/21 10:57:52;;;;;;;;;8.33;7.67;;;;;;;;4902793;29;45313;-84
2023/11/21 11:00:20;;;;;;;;;5.75;5.75;;;;;;;;4885620;29;45246;-84
2023/11/21 11:02:47;;;;;;;;;6.25;6.00;;;;;;;;4903007;29;45403;-89
2023/11/21 11:05:13;;;;;;;;;8.00;8.00;;;;;;;;4884971;29;46018;-85
2023/11/21 11:07:45;;;;;;;;;9.33;8.67;;;;;;;;4903365;29;46326;-83
2023/11/21 11:10:16;;;;;;;;;7.33;4.67;;;;;;;;4902726;29;45299;-81
2023/11/21 11:12:41;;;;;;;;;5.00;4.25;;;;;;;;4885587;29;45391;-80
2023/11/21 11:15:10;;;;;;;;;5.25;4.25;;;;;;;;4903559;29;45262;-88
2023/11/21 11:17:38;;;;;;;;;5.00;5.00;;;;;;;;4886305;29;47456;-82
2023/11/21 11:20:06;;;;;;;;;6.33;4.00;;;;;;;;4902968;29;45352;-83
2023/11/21 11:22:40;;;;;;;;;8.67;8.67;;;;;;;;4905408;29;45353;-82
2023/11/21 11:25:06;;;;;;;;;4.00;4.00;;;;;;;;4885934;29;46188;-83
2023/11/21 11:27:36;;;;;;;;;5.67;5.67;;;;;;;;4903272;29;45965;-85
2023/11/21 11:30:20;;;;;;;;;6.33;6.33;;;;;;;;4906173;29;45361;-86
2023/11/21 11:33:01;;;;;;;;;6.33;6.33;;;;;;;;4886868;29;45431;-83
2023/11/21 11:35:34;;;;;;;;;9.00;9.00;;;;;;;;4887529;29;45659;-85
2023/11/21 11:37:59;;;;;;;;;6.67;6.67;;;;;;;;4888921;29;45358;-83
2023/11/21 11:40:25;;;;;;;;;5.25;5.25;;;;;;;;4887239;29;45363;-83
2023/11/21 11:42:58;;;;;;;;;7.00;6.00;;;;;;;;4886308;29;45264;-81
2023/11/21 11:45:28;;;;;;;;;7.67;7.33;;;;;;;;4887558;29;45344;-85
2023/11/21 11:47:56;;;;;;;;;6.00;6.00;;;;;;;;4870762;29;47382;-81
2023/11/21 11:50:21;;;;;;;;;5.00;5.00;;;;;;;;4890207;29;45368;-81
2023/11/21 11:52:48;;;;;;;;;5.00;5.00;;;;;;;;4905847;29;45301;-83
2023/11/21 11:55:15;;;;;;;;;3.33;3.33;;;;;;;;4905066;29;45238;-84
2023/11/21 11:57:41;;;;;;;;;4.67;4.67;;;;;;;;4897782;28;47337;-84
2023/11/21 12:00:15;;;;;;;;;4.00;4.00;;;;;;;;4909399;28;45343;-82
2023/11/21 12:02:41;;;;;;;;;4.33;4.33;;;;;;;;4905131;29;45377;-83
2023/11/21 12:05:15;;;;;;;;;4.25;4.25;;;;;;;;4887707;29;45918;-84
2023/11/21 12:08:00;;;;;;;;;5.00;5.00;;;;;;;;4904916;29;46075;-82
2023/11/21 12:10:29;;;;;;;;;8.00;5.67;;;;;;;;4904240;29;45358;-83
2023/11/21 12:12:56;;;;;;;;;4.00;4.00;;;;;;;;4904814;29;45340;-83
2023/11/21 12:15:21;;;;;;;;;6.67;6.67;;;;;;;;4886784;29;46033;-80
2023/11/21 12:17:48;;;;;;;;;4.75;4.75;;;;;;;;4885230;29;47404;-80
2023/11/21 12:20:14;;;;;;;;;5.00;5.00;;;;;;;;4902019;29;45350;-79
2023/11/21 12:22:41;;;;;;;;;4.50;4.50;;;;;;;;4902460;29;45462;-78
2023/11/21 12:25:06;;;;;;;;;6.00;6.00;;;;;;;;4884886;29;46214;-77
2023/11/21 12:27:32;;;;;;;;;6.67;6.00;;;;;;;;4902161;29;45592;-79
2023/11/21 12:29:57;;;;;;;;;7.00;7.00;;;;;;;;4899513;29;45575;-79
2023/11/21 12:32:22;;;;;;;;;22.00;18.33;;;;;;;;4902668;29;45355;-80
2023/11/21 12:34:47;;;;;;;;;13.33;11.33;;;;;;;;4903462;28;45449;-79
2023/11/21 12:37:12;;;;;;;;;5.00;5.00;;;;;;;;4903650;29;45375;-79
2023/11/21 12:39:38;;;;;;;;;5.00;5.00;;;;;;;;4909562;28;45322;-80
2023/11/21 12:42:03;;;;;;;;;5.33;5.00;;;;;;;;4923364;28;45258;-80
2023/11/21 12:44:29;;;;;;;;;8.33;6.67;;;;;;;;4922754;28;45421;-79
2023/11/21 12:46:55;;;;;;;;;6.33;6.33;;;;;;;;4922697;28;46204;-79
2023/11/21 12:49:21;;;;;;;;;7.33;7.00;;;;;;;;4922773;28;45279;-81
2023/11/21 12:51:47;;;;;;;;;9.67;9.67;;;;;;;;4913396;28;45427;-79
2023/11/21 12:54:12;;;;;;;;;6.33;6.33;;;;;;;;4903873;28;45484;-79
2023/11/21 12:56:38;;;;;;;;;6.67;6.67;;;;;;;;4905660;28;45388;-79
2023/11/21 12:59:04;;;;;;;;;9.00;9.00;;;;;;;;4922846;28;45400;-80
2023/11/21 13:01:31;;;;;;;;;7.00;6.67;;;;;;;;4922495;28;45363;-79
2023/11/21 13:03:57;;;;;;;;;5.67;5.67;;;;;;;;4922684;28;45304;-79
2023/11/21 13:06:25;;;;;;;;;10.00;9.67;;;;;;;;4918042;28;45352;-82
2023/11/21 13:08:50;;;;;;;;;10.00;9.00;;;;;;;;4895500;29;45244;-82
2023/11/21 13:11:17;;;;;;;;;10.67;9.67;;;;;;;;4892998;28;45534;-80
2023/11/21 13:13:45;;;;;;;;;9.67;9.67;;;;;;;;4893253;29;45359;-78
2023/11/21 13:16:11;;;;;;;;;8.00;7.33;;;;;;;;4898042;28;46268;-79
2023/11/21 13:18:37;;;;;;;;;6.00;6.00;;;;;;;;4892199;29;45380;-79
2023/11/21 13:21:13;;;;;;;;;9.33;9.33;;;;;;;;4893491;28;45260;-79
2023/11/21 13:23:40;;;;;;;;;10.67;10.00;;;;;;;;4880261;29;45559;-79
2023/11/21 13:26:06;;;;;;;;;11.33;10.00;;;;;;;;4893150;29;46320;-79
2023/11/21 13:28:33;;;;;;;;;7.67;7.33;;;;;;;;4896409;28;45345;-78
2023/11/21 13:31:02;;;;;;;;;12.00;12.00;;;;;;;;4891787;29;45442;-79
2023/11/21 13:33:28;;;;;;;;;10.00;10.00;;;;;;;;4894644;28;45593;-79
2023/11/21 13:35:53;;;;;;;;;11.33;11.00;;;;;;;;4902297;29;45864;-78
2023/11/21 13:38:22;;;;;;;;;13.67;12.33;;;;;;;;4902412;28;45292;-80
2023/11/21 13:40:53;;;;;;;;;11.00;11.00;;;;;;;;4894785;29;45400;-80
2023/11/21 13:43:20;;;;;;;;;12.00;12.00;;;;;;;;4880086;29;46286;-79
2023/11/21 13:45:46;;;;;;;;;10.00;9.00;;;;;;;;4884179;29;45413;-78
2023/11/21 13:48:13;;;;;;;;;9.00;9.00;;;;;;;;4889841;29;45377;-78
2023/11/21 13:50:55;;;;;;;;;11.33;10.33;;;;;;;;4868297;29;45970;-80
2023/11/21 13:53:23;;;;;;;;;10.33;10.00;;;;;;;;4878235;29;46065;-78
2023/11/21 13:55:50;;;;;;;;;16.00;13.67;;;;;;;;4881874;29;47903;-79
2023/11/21 13:58:23;;;;;;;;;17.00;15.00;;;;;;;;4897357;29;45489;-79
2023/11/21 14:00:56;;;;;;;;;14.33;11.67;;;;;;;;4894503;29;45473;-79
2023/11/21 14:03:21;;;;;;;;;9.33;9.33;;;;;;;;4882796;29;45365;-79
2023/11/21 14:05:50;;;;;;;;;17.67;13.67;;;;;;;;4883277;29;45761;-79
2023/11/21 14:08:19;;;;;;;;;11.00;10.67;;;;;;;;4871624;29;45336;-78
2023/11/21 14:10:49;;;;;;;;;9.33;9.33;;;;;;;;4864518;29;45284;-77
2023/11/21 14:13:16;;;;;;;;;13.33;12.67;;;;;;;;4892953;29;45589;-78
2023/11/21 14:15:44;;;;;;;;;11.33;10.33;;;;;;;;4902399;28;45434;-78
2023/11/21 14:18:10;;;;;;;;;12.00;12.00;;;;;;;;4900986;28;45435;-79